createdAt,value
2023-01-26T00:01:19.261Z,11.94
2023-01-26T00:03:46.503Z,11.93
2023-01-26T00:06:16.183Z,11.91
2023-01-26T00:08:45.325Z,11.90
2023-01-26T00:11:15.017Z,11.86
2023-01-26T00:13:42.528Z,11.82
2023-01-26T00:16:13.616Z,11.81
2023-01-26T00:18:42.009Z,11.76
2023-01-26T00:21:12.734Z,11.73
2023-01-26T00:23:39.630Z,11.68
2023-01-26T00:26:08.192Z,11.67
2023-01-26T00:28:36.441Z,11.64
2023-01-26T00:31:04.447Z,11.63
2023-01-26T00:33:31.626Z,11.61
2023-01-26T00:35:58.660Z,11.58
2023-01-26T00:38:26.555Z,11.54
2023-01-26T00:40:53.671Z,11.53
2023-01-26T00:43:20.759Z,11.49
2023-01-26T00:45:47.501Z,11.47
2023-01-26T00:48:14.383Z,11.48
2023-01-26T00:50:41.252Z,11.45
2023-01-26T00:53:09.594Z,11.42
2023-01-26T00:55:36.549Z,11.39
2023-01-26T00:58:06.215Z,11.32
2023-01-26T01:00:34.962Z,11.33
2023-01-26T01:03:02.494Z,11.32
2023-01-26T01:05:31.478Z,11.28
2023-01-26T01:07:58.543Z,11.28
2023-01-26T01:10:27.573Z,11.24
2023-01-26T01:12:55.251Z,11.16
2023-01-26T01:15:24.310Z,11.19
2023-01-26T01:17:51.227Z,11.19
2023-01-26T01:20:18.036Z,11.21
2023-01-26T01:22:46.541Z,11.13
2023-01-26T01:25:13.407Z,11.11
2023-01-26T01:27:40.095Z,11.07
2023-01-26T01:30:08.298Z,11.10
2023-01-26T01:32:36.265Z,11.01
2023-01-26T01:35:03.950Z,11.00
2023-01-26T01:37:31.095Z,10.97
2023-01-26T01:39:57.945Z,10.99
2023-01-26T01:42:25.845Z,10.93
2023-01-26T01:45:26.632Z,10.88
2023-01-26T01:47:57.186Z,10.88
2023-01-26T01:50:26.098Z,10.86
2023-01-26T01:52:55.907Z,10.86
2023-01-26T01:55:25.559Z,10.86
2023-01-26T01:57:58.774Z,10.78
2023-01-26T02:00:26.629Z,10.79
2023-01-26T02:03:11.102Z,10.78
2023-01-26T02:05:44.756Z,10.75
2023-01-26T02:08:13.196Z,10.74
2023-01-26T02:10:41.085Z,10.85
2023-01-26T02:13:08.709Z,10.83
2023-01-26T02:15:35.561Z,10.75
2023-01-26T02:18:05.080Z,10.74
2023-01-26T02:20:37.256Z,10.73
2023-01-26T02:23:21.979Z,10.68
2023-01-26T02:25:49.780Z,10.65
2023-01-26T02:28:18.538Z,10.69
2023-01-26T02:30:46.498Z,10.68
2023-01-26T02:33:26.916Z,10.69
2023-01-26T02:35:58.036Z,10.64
2023-01-26T02:38:30.521Z,10.64
2023-01-26T02:41:06.249Z,10.56
2023-01-26T02:43:33.402Z,10.62
2023-01-26T02:46:00.236Z,10.67
2023-01-26T02:48:45.667Z,10.76
2023-01-26T02:51:12.724Z,10.77
2023-01-26T02:53:39.952Z,10.70
2023-01-26T02:56:07.299Z,10.62
2023-01-26T02:58:34.536Z,10.65
2023-01-26T03:01:01.250Z,10.69
2023-01-26T03:03:41.794Z,10.69
2023-01-26T03:06:10.543Z,10.61
2023-01-26T03:08:38.433Z,10.57
2023-01-26T03:11:07.390Z,10.62
2023-01-26T03:13:34.729Z,10.65
2023-01-26T03:16:06.815Z,10.63
2023-01-26T03:18:53.873Z,10.61
2023-01-26T03:21:42.299Z,10.62
2023-01-26T03:24:31.662Z,10.64
2023-01-26T03:27:19.685Z,10.55
2023-01-26T03:29:46.311Z,10.52
2023-01-26T03:32:13.101Z,10.47
2023-01-26T03:34:42.213Z,10.53
2023-01-26T03:37:09.060Z,10.59
2023-01-26T03:40:06.175Z,10.53
2023-01-26T03:42:53.863Z,10.51
2023-01-26T03:45:40.040Z,10.57
2023-01-26T03:48:28.165Z,10.52
2023-01-26T03:51:13.559Z,10.49
2023-01-26T03:53:58.932Z,10.51
2023-01-26T03:56:25.773Z,10.50
2023-01-26T03:58:58.100Z,10.35
2023-01-26T04:01:28.229Z,10.40
2023-01-26T04:04:20.162Z,10.43
2023-01-26T04:07:07.138Z,10.37
2023-01-26T04:09:37.063Z,10.40
2023-01-26T04:12:04.698Z,10.44
2023-01-26T04:14:52.519Z,10.32
2023-01-26T04:17:42.005Z,10.42
2023-01-26T04:20:27.925Z,10.32
2023-01-26T04:22:54.777Z,10.31
2023-01-26T04:25:22.862Z,10.34
2023-01-26T04:27:50.191Z,10.36
2023-01-26T04:30:17.775Z,10.35
2023-01-26T04:32:46.297Z,10.42
2023-01-26T04:35:13.722Z,10.30
2023-01-26T04:37:42.164Z,10.29
2023-01-26T04:40:10.028Z,10.30
2023-01-26T04:42:37.692Z,10.30
2023-01-26T04:45:05.839Z,10.19
2023-01-26T04:47:32.870Z,10.27
2023-01-26T04:49:59.544Z,10.16
2023-01-26T04:52:26.517Z,10.22
2023-01-26T04:54:53.290Z,10.26
2023-01-26T04:57:21.244Z,10.27
2023-01-26T04:59:50.342Z,10.17
2023-01-26T05:02:19.164Z,10.21
2023-01-26T05:04:46.069Z,10.21
2023-01-26T05:07:14.455Z,10.16
2023-01-26T05:09:41.276Z,10.20
2023-01-26T05:12:42.720Z,10.17
2023-01-26T05:15:29.039Z,10.11
2023-01-26T05:18:10.963Z,10.08
2023-01-26T05:20:45.889Z,10.20
2023-01-26T05:23:17.366Z,10.14
2023-01-26T05:26:04.959Z,10.06
2023-01-26T05:28:41.059Z,10.00
2023-01-26T05:31:08.413Z,10.09
2023-01-26T05:33:35.567Z,10.13
2023-01-26T05:36:06.214Z,10.04
2023-01-26T05:38:34.092Z,10.05
2023-01-26T05:41:00.925Z,10.03
2023-01-26T05:43:30.761Z,10.10
2023-01-26T05:46:21.990Z,10.05
2023-01-26T05:48:49.600Z,10.11
2023-01-26T05:51:16.340Z,10.13
2023-01-26T05:53:43.266Z,10.06
2023-01-26T05:56:10.153Z,10.02
2023-01-26T05:58:42.434Z,10.00
2023-01-26T06:01:09.397Z,9.98
2023-01-26T06:03:49.253Z,9.98
2023-01-26T06:06:16.254Z,10.09
2023-01-26T06:08:50.481Z,9.95
2023-01-26T06:11:35.814Z,9.99
2023-01-26T06:14:14.296Z,10.02
2023-01-26T06:16:41.347Z,9.98
2023-01-26T06:19:10.552Z,9.87
2023-01-26T06:21:38.173Z,9.92
2023-01-26T06:24:05.245Z,9.91
2023-01-26T06:26:32.126Z,9.58
2023-01-26T06:28:59.219Z,9.71
2023-01-26T06:31:29.845Z,9.90
2023-01-26T06:33:58.910Z,9.81
2023-01-26T06:36:28.278Z,9.87
2023-01-26T06:38:56.935Z,9.84
2023-01-26T06:41:24.395Z,9.82
2023-01-26T06:43:51.483Z,9.90
2023-01-26T06:46:19.591Z,9.81
2023-01-26T06:48:47.831Z,9.82
2023-01-26T06:51:18.336Z,9.85
2023-01-26T06:53:58.598Z,9.72
2023-01-26T06:56:32.845Z,9.76
2023-01-26T06:59:25.814Z,9.82
2023-01-26T07:02:20.454Z,9.69
2023-01-26T07:04:48.248Z,9.77
2023-01-26T07:07:15.098Z,9.79
2023-01-26T07:09:41.875Z,9.79
2023-01-26T07:12:09.654Z,9.76
2023-01-26T07:14:36.555Z,9.76
2023-01-26T07:17:03.473Z,9.70
2023-01-26T07:19:31.461Z,9.76
2023-01-26T07:21:58.224Z,9.63
2023-01-26T07:24:25.542Z,9.59
2023-01-26T07:26:52.335Z,9.53
2023-01-26T07:29:19.388Z,9.58
2023-01-26T07:31:46.256Z,9.54
2023-01-26T07:34:13.646Z,9.58
2023-01-26T07:36:40.986Z,9.59
2023-01-26T07:39:08.641Z,9.59
2023-01-26T07:41:36.117Z,9.62
2023-01-26T07:44:13.465Z,9.49
2023-01-26T07:46:41.412Z,9.53
2023-01-26T07:49:08.183Z,9.55
2023-01-26T07:51:34.797Z,9.51
2023-01-26T07:54:02.622Z,9.60
2023-01-26T07:56:29.378Z,9.49
2023-01-26T07:58:56.098Z,9.60
2023-01-26T08:01:23.212Z,9.56
2023-01-26T08:03:51.992Z,9.58
2023-01-26T08:06:19.171Z,9.61
2023-01-26T08:08:51.069Z,9.52
2023-01-26T08:11:23.593Z,9.54
2023-01-26T08:13:50.300Z,9.51
2023-01-26T08:16:17.654Z,9.47
2023-01-26T08:18:46.408Z,9.33
2023-01-26T08:21:15.274Z,9.37
2023-01-26T08:23:42.008Z,9.46
2023-01-26T08:26:12.284Z,9.57
2023-01-26T08:28:39.272Z,9.70
2023-01-26T08:31:08.943Z,9.71
2023-01-26T08:33:35.772Z,9.80
2023-01-26T08:36:07.206Z,9.86
2023-01-26T08:38:34.582Z,10.28
2023-01-26T08:41:02.218Z,10.86
2023-01-26T08:43:29.307Z,11.16
2023-01-26T08:45:56.440Z,11.31
2023-01-26T08:48:23.127Z,11.45
2023-01-26T08:50:55.194Z,11.77
2023-01-26T08:53:23.079Z,11.93
2023-01-26T08:55:52.510Z,11.95
2023-01-26T08:58:20.531Z,12.02
2023-01-26T09:00:47.722Z,12.12
2023-01-26T09:03:14.950Z,12.17
2023-01-26T09:05:41.844Z,12.24
2023-01-26T09:08:09.653Z,12.38
2023-01-26T09:10:39.414Z,12.47
2023-01-26T09:13:06.408Z,12.51
2023-01-26T09:15:33.176Z,12.60
2023-01-26T09:18:01.130Z,12.61
2023-01-26T09:20:28.730Z,12.75
2023-01-26T09:22:55.397Z,12.79
2023-01-26T09:25:22.064Z,12.81
2023-01-26T09:27:48.898Z,12.87
2023-01-26T09:30:16.202Z,12.91
2023-01-26T09:32:43.046Z,12.95
2023-01-26T09:35:14.290Z,13.04
2023-01-26T09:37:43.480Z,13.08
2023-01-26T09:40:19.639Z,13.08
2023-01-26T09:43:05.398Z,13.14
2023-01-26T09:46:10.680Z,13.18
2023-01-26T09:48:43.149Z,13.25
2023-01-26T09:51:32.188Z,13.26
2023-01-26T09:54:22.333Z,13.31
2023-01-26T09:56:48.997Z,13.36
2023-01-26T09:59:44.289Z,13.39
2023-01-26T10:02:41.992Z,13.43
2023-01-26T10:05:17.810Z,13.40
2023-01-26T10:07:47.975Z,13.47
2023-01-26T10:10:28.312Z,13.48
2023-01-26T10:12:56.351Z,13.59
2023-01-26T10:15:38.843Z,13.57
2023-01-26T10:18:19.836Z,13.59
2023-01-26T10:20:51.449Z,13.64
2023-01-26T10:23:23.439Z,13.66
2023-01-26T10:25:52.010Z,13.68
2023-01-26T10:28:26.138Z,13.77
2023-01-26T10:30:53.681Z,13.79
2023-01-26T10:33:30.830Z,13.79
2023-01-26T10:35:57.660Z,13.81
2023-01-26T10:38:33.633Z,13.81
2023-01-26T10:41:05.248Z,13.81
2023-01-26T10:43:41.008Z,13.88
2023-01-26T10:46:23.681Z,13.95
2023-01-26T10:49:00.762Z,14.00
2023-01-26T10:51:33.332Z,13.99
2023-01-26T10:54:20.228Z,14.04
2023-01-26T10:56:56.725Z,14.08
2023-01-26T10:59:40.664Z,14.10
2023-01-26T11:02:19.140Z,14.12
2023-01-26T11:05:08.745Z,14.17
2023-01-26T11:07:40.832Z,14.16
2023-01-26T11:10:26.828Z,14.23
2023-01-26T11:13:13.077Z,14.30
2023-01-26T11:15:42.060Z,14.32
2023-01-26T11:18:37.505Z,14.37
2023-01-26T11:21:11.130Z,14.40
2023-01-26T11:23:48.436Z,14.45
2023-01-26T11:26:32.982Z,14.49
2023-01-26T11:29:30.982Z,14.47
2023-01-26T11:32:03.676Z,14.55
2023-01-26T11:34:42.211Z,14.57
2023-01-26T11:37:26.689Z,14.63
2023-01-26T11:40:25.795Z,14.62
2023-01-26T11:43:13.496Z,14.69
2023-01-26T11:46:02.505Z,14.66
2023-01-26T11:49:00.338Z,14.71
2023-01-26T11:51:29.634Z,14.78
2023-01-26T11:54:01.921Z,14.77
2023-01-26T11:56:34.674Z,14.75
2023-01-26T11:59:16.507Z,14.81
2023-01-26T12:02:00.013Z,14.86
2023-01-26T12:04:28.483Z,14.84
2023-01-26T12:07:02.382Z,14.56
2023-01-26T12:09:38.636Z,14.33
2023-01-26T12:12:12.580Z,14.22
2023-01-26T12:15:05.802Z,14.06
2023-01-26T12:17:51.284Z,14.16
2023-01-26T12:20:39.657Z,14.09
2023-01-26T12:23:09.257Z,14.01
2023-01-26T12:25:37.588Z,14.03
2023-01-26T12:28:07.497Z,14.03
2023-01-26T12:30:42.099Z,14.00
2023-01-26T12:33:11.094Z,14.01
2023-01-26T14:09:52.642Z,12.19
2023-01-26T14:12:25.140Z,12.29
2023-01-26T14:15:01.898Z,12.32
2023-01-26T14:17:36.906Z,12.19
2023-01-26T14:20:32.594Z,12.11
2023-01-26T14:23:21.549Z,12.01
2023-01-26T14:26:54.212Z,12.10
2023-01-26T14:29:24.473Z,12.07
2023-01-26T14:31:53.630Z,12.12
2023-01-26T14:34:23.423Z,12.10
2023-01-26T14:37:12.855Z,12.02
2023-01-26T14:39:40.214Z,11.96
2023-01-26T14:42:07.295Z,11.93
2023-01-26T14:44:35.104Z,11.93
2023-01-26T14:47:08.141Z,11.91
2023-01-26T14:49:57.656Z,11.98
2023-01-26T14:52:27.597Z,11.92
2023-01-26T14:54:58.196Z,11.89
2023-01-26T14:57:27.837Z,11.84
2023-01-26T14:59:58.078Z,11.86
2023-01-26T15:02:27.796Z,11.93
2023-01-26T15:04:59.500Z,11.96
2023-01-26T15:07:41.183Z,12.08
2023-01-26T15:10:31.034Z,12.16
2023-01-26T15:13:08.495Z,12.24
2023-01-26T15:15:41.215Z,12.30
2023-01-26T15:18:13.832Z,12.41
2023-01-26T15:21:12.450Z,12.43
2023-01-26T15:23:45.709Z,12.55
2023-01-26T15:26:15.398Z,12.62
2023-01-26T15:28:42.465Z,12.79
2023-01-26T15:31:21.282Z,12.94
2023-01-26T15:33:53.649Z,13.04
2023-01-26T15:36:27.507Z,13.04
2023-01-26T15:39:12.892Z,13.02
2023-01-26T15:41:44.896Z,13.02
2023-01-26T15:44:21.541Z,13.08
2023-01-26T15:46:48.426Z,13.13
2023-01-26T15:49:20.134Z,13.14
2023-01-26T15:52:05.576Z,13.19
2023-01-26T15:54:32.285Z,13.21
2023-01-26T15:56:59.780Z,13.21
2023-01-26T15:59:26.778Z,13.20
2023-01-26T16:01:53.755Z,13.25
2023-01-26T16:04:20.650Z,13.26
2023-01-26T16:06:47.648Z,13.27
2023-01-26T16:09:14.713Z,13.24
2023-01-26T16:11:48.974Z,13.23
2023-01-26T16:14:16.592Z,13.26
2023-01-26T16:16:43.758Z,13.24
2023-01-26T16:19:10.801Z,13.24
2023-01-26T16:21:41.032Z,13.31
2023-01-26T16:24:10.563Z,13.31
2023-01-26T16:26:37.463Z,13.25
2023-01-26T16:29:04.341Z,13.24
2023-01-26T16:31:33.670Z,13.24
2023-01-26T16:34:01.291Z,13.32
2023-01-26T16:36:29.601Z,13.26
2023-01-26T16:39:15.561Z,13.25
2023-01-26T16:41:42.324Z,13.26
2023-01-26T16:44:14.571Z,13.26
2023-01-26T16:46:42.781Z,13.25
2023-01-26T16:49:14.379Z,13.26
2023-01-26T16:51:42.628Z,13.26
2023-01-26T16:54:10.443Z,13.28
2023-01-26T16:56:37.459Z,13.26
2023-01-26T16:59:06.034Z,13.24
2023-01-26T17:01:37.596Z,13.27
2023-01-26T17:04:05.416Z,13.29
2023-01-26T17:06:32.897Z,13.45
2023-01-26T17:08:59.682Z,13.86
2023-01-26T17:11:28.761Z,14.11
2023-01-26T17:13:56.721Z,14.27
2023-01-26T17:16:29.411Z,14.39
2023-01-26T17:18:56.487Z,14.46
2023-01-26T17:21:23.553Z,14.47
2023-01-26T17:23:51.940Z,14.57
2023-01-26T17:26:20.078Z,14.67
2023-01-26T17:28:51.965Z,14.72
2023-01-26T17:31:20.974Z,14.79
2023-01-26T17:33:50.064Z,14.86
2023-01-26T17:36:18.535Z,14.92
2023-01-26T17:38:45.776Z,15.00
2023-01-26T17:41:12.526Z,15.00
2023-01-26T17:43:39.254Z,14.94
2023-01-26T17:46:13.022Z,14.45
2023-01-26T17:48:40.849Z,14.24
2023-01-26T17:51:09.349Z,14.18
2023-01-26T17:53:40.105Z,14.05
2023-01-26T17:56:09.422Z,14.06
2023-01-26T17:58:36.880Z,14.04
2023-01-26T18:01:06.160Z,14.02
2023-01-26T18:03:33.733Z,13.98
2023-01-26T18:06:01.374Z,13.96
2023-01-26T18:08:28.188Z,13.93
2023-01-26T18:11:02.895Z,13.95
2023-01-26T18:13:31.990Z,13.92
2023-01-26T18:15:59.627Z,13.90
2023-01-26T18:18:28.673Z,13.87
2023-01-26T18:20:56.079Z,13.83
2023-01-26T18:23:24.708Z,13.84
2023-01-26T18:25:54.651Z,13.82
2023-01-26T18:28:21.376Z,13.81
2023-01-26T18:30:48.685Z,13.83
2023-01-26T18:33:18.069Z,13.84
2023-01-26T18:35:45.183Z,13.82
2023-01-26T18:38:12.109Z,13.84
2023-01-26T18:40:40.167Z,13.80
2023-01-26T18:43:07.187Z,13.80
2023-01-26T18:45:34.013Z,13.83
2023-01-26T18:48:03.959Z,13.86
2023-01-26T18:50:31.122Z,13.83
2023-01-26T18:52:59.741Z,13.83
2023-01-26T18:55:26.648Z,13.83
2023-01-26T18:57:55.323Z,13.85
2023-01-26T19:00:22.451Z,13.86
2023-01-26T19:02:49.297Z,13.90
2023-01-26T19:05:16.285Z,13.88
2023-01-26T19:07:44.025Z,13.91
2023-01-26T19:10:10.944Z,13.86
2023-01-26T19:12:37.739Z,13.90
2023-01-26T19:15:05.245Z,13.89
2023-01-26T19:17:32.378Z,13.92
2023-01-26T19:19:59.207Z,13.90
2023-01-26T19:22:26.043Z,13.94
2023-01-26T19:24:53.021Z,13.93
2023-01-26T19:27:20.075Z,13.94
2023-01-26T19:29:46.928Z,13.96
2023-01-26T19:32:13.690Z,13.97
2023-01-26T19:34:40.614Z,13.95
2023-01-26T19:37:07.359Z,13.99
2023-01-26T19:39:36.371Z,14.02
2023-01-26T19:42:03.092Z,14.05
2023-01-26T19:44:48.542Z,13.98
2023-01-26T19:47:15.405Z,14.05
2023-01-26T19:49:42.285Z,14.00
2023-01-26T19:52:09.206Z,14.02
2023-01-26T19:54:36.057Z,13.91
2023-01-26T19:57:03.124Z,13.98
2023-01-26T19:59:29.835Z,14.01
2023-01-26T20:01:56.617Z,14.00
2023-01-26T20:04:23.384Z,13.99
2023-01-26T20:06:50.166Z,13.98
2023-01-26T20:09:19.723Z,13.98
2023-01-26T20:11:48.591Z,13.97
2023-01-26T20:14:15.508Z,13.93
2023-01-26T20:16:42.605Z,13.95
2023-01-26T20:19:11.564Z,13.94
2023-01-26T20:21:38.918Z,13.98
2023-01-26T20:24:06.969Z,13.98
2023-01-26T20:26:34.825Z,13.95
2023-01-26T20:29:01.885Z,13.93
2023-01-26T20:31:28.705Z,13.93
2023-01-26T20:33:56.127Z,13.98
2023-01-26T20:36:28.771Z,13.96
2023-01-26T20:38:55.951Z,13.96
2023-01-26T20:41:25.900Z,13.97
2023-01-26T20:44:00.858Z,13.92
2023-01-26T20:46:39.977Z,13.95
2023-01-26T20:49:10.262Z,13.90
2023-01-26T20:51:42.522Z,13.95
2023-01-26T20:54:13.577Z,13.95
2023-01-26T20:56:40.942Z,13.93
2023-01-26T20:59:07.876Z,13.92
2023-01-26T21:01:36.483Z,13.95
2023-01-26T21:04:06.732Z,13.95
2023-01-26T21:06:34.509Z,13.98
2023-01-26T21:09:01.923Z,13.99
2023-01-26T21:11:30.748Z,14.01
2023-01-26T21:14:00.641Z,14.13
2023-01-26T21:16:28.820Z,14.20
2023-01-26T21:18:55.872Z,14.22
2023-01-26T21:21:23.281Z,14.23
2023-01-26T21:23:50.953Z,14.26
2023-01-26T21:26:22.321Z,14.32
2023-01-26T21:28:53.782Z,14.33
2023-01-26T21:31:22.700Z,14.39
2023-01-26T21:33:50.476Z,14.32
2023-01-26T21:36:29.139Z,14.43
2023-01-26T21:38:57.491Z,14.48
2023-01-26T21:41:48.675Z,14.49
2023-01-26T21:44:53.526Z,14.50
2023-01-26T21:47:20.333Z,14.53
2023-01-26T21:49:47.813Z,14.53
2023-01-26T21:52:33.382Z,14.48
2023-01-26T21:55:00.207Z,14.54
2023-01-26T21:57:45.697Z,14.56
2023-01-26T22:00:32.494Z,14.52
2023-01-26T22:03:00.748Z,14.52
2023-01-26T22:05:27.579Z,14.60
2023-01-26T22:07:54.247Z,14.62
2023-01-26T22:10:21.052Z,14.59
2023-01-26T22:12:47.763Z,14.57
2023-01-26T22:15:15.171Z,14.65
2023-01-26T22:17:41.987Z,14.62
2023-01-26T22:20:09.992Z,14.65
2023-01-26T22:22:36.931Z,14.71
2023-01-26T22:25:03.865Z,14.73
2023-01-26T22:27:30.576Z,14.74
2023-01-26T22:29:57.467Z,14.64
2023-01-26T22:32:24.490Z,14.56
2023-01-26T22:34:51.694Z,14.56
2023-01-26T22:37:18.802Z,14.50
2023-01-26T22:39:45.681Z,14.44
2023-01-26T22:42:12.408Z,14.40
2023-01-26T22:44:39.291Z,14.30
2023-01-26T22:47:06.149Z,14.27
2023-01-26T22:49:33.051Z,14.26
2023-01-26T22:51:59.922Z,14.26
2023-01-26T22:54:27.784Z,14.22
2023-01-26T22:56:54.717Z,14.20
2023-01-26T22:59:21.641Z,14.10
2023-01-26T23:01:48.561Z,14.15
2023-01-26T23:04:15.556Z,14.18
2023-01-26T23:06:42.373Z,14.20
2023-01-26T23:09:09.285Z,14.15
2023-01-26T23:11:36.084Z,14.09
2023-01-26T23:14:03.073Z,14.12
2023-01-26T23:16:30.329Z,14.10
2023-01-26T23:18:58.444Z,14.12
2023-01-26T23:21:26.741Z,14.08
2023-01-26T23:23:53.730Z,13.99
2023-01-26T23:26:21.015Z,14.04
2023-01-26T23:28:48.445Z,14.01
2023-01-26T23:31:16.820Z,13.96
2023-01-26T23:33:44.311Z,13.86
2023-01-26T23:36:13.712Z,13.82
2023-01-26T23:38:40.804Z,13.89
2023-01-26T23:41:12.060Z,13.77
2023-01-26T23:43:39.163Z,13.77
2023-01-26T23:46:07.980Z,13.73
2023-01-26T23:48:34.997Z,13.72
2023-01-26T23:51:04.838Z,13.63
2023-01-26T23:53:32.464Z,13.56
2023-01-26T23:56:14.861Z,13.53
2023-01-26T23:58:41.600Z,13.49
